메인 페이지
METAR-TAF:

METAR-TAF

공항 :

타브리즈, 이란

위도: 38-05N, 경도: 046-17E, 고도: 1367m

현재 날씨관측

예보는 20분 전, 19:30시(UTC)에 발표되었습니다.
동북동6kt
온도 14°C
습도 67%
기압 1023 hPa
시정 10km 이상
고도 3000ft 상공 구름 조금
고도 3200ft 상공 구름 보통, 적란운.
고도 8000ft 상공 구름 보통

METAR: OITT 211930Z 07006KT 9999 FEW030 SCT032CB SCT080 14/08 Q1023 A3021

시각: 00:20 (19:50 UTC)

예보

예보는 2 시간 20분 전, 17:30시(UTC)에 발표되었습니다.
예보 대상 시간: 21일 18시부터 22일 24시까지 (UTC)
8kt
시정 10km 이상
고도 3000ft 상공 구름 보통
고도 3200ft 상공 구름 보통, 적란운.
고도 8000ft 상공 구름 많음
전환 중
21일 18시부터 21일 20시까지 (UTC)
동북동12kt
고도 4000ft 상공 구름 조금
고도 10000ft 상공 구름 보통

TAF: OITT 211730Z 2118/2224 10008KT 9999 SCT030 SCT032CB BKN080 BECMG 2118/2120 06012KT FEW040 SCT100

4,000개 이상의 공항 관측 자료 및 예보 (METAR 및 TAF 보고).

지도상에서 검색 가능한 기상관측소가 노란 점과 빨간 점으로 표시되어 있습니다.

기상관측소 명을 보려면 표시 위로 마우스를 이동하세요.

날씨 관측과 예보를 보려면 클릭하세요.

지도 변경 : 확대하려면 엑스 표시가 있는 녹색 버튼, 축소하려면 빼기 표시가 있는 녹색 버튼, 다음 페이지의 지도를 보려면 녹색 화살표를 클릭하세요.


METAR-TAF: